sensor_id;sensor_type;location;lat;lon;timestamp;temperature;humidity
935;DHT22;454;53.254;10.400;2023-07-13T04:02:24;15.80;99.90
935;DHT22;454;53.254;10.400;2023-07-13T04:04:50;15.80;99.90
935;DHT22;454;53.254;10.400;2023-07-13T04:07:18;15.90;99.90
935;DHT22;454;53.254;10.400;2023-07-13T04:09:45;15.90;99.90
935;DHT22;454;53.254;10.400;2023-07-13T04:12:12;15.90;99.90
935;DHT22;454;53.254;10.400;2023-07-13T04:14:39;15.90;99.90
935;DHT22;454;53.254;10.400;2023-07-13T04:17:06;16.00;99.90
935;DHT22;454;53.254;10.400;2023-07-13T04:19:34;16.10;99.90
935;DHT22;454;53.254;10.400;2023-07-13T04:22:01;16.10;99.90
935;DHT22;454;53.254;10.400;2023-07-13T04:24:27;16.20;99.90
935;DHT22;454;53.254;10.400;2023-07-13T04:26:54;16.30;99.90
935;DHT22;454;53.254;10.400;2023-07-13T04:29:24;16.40;99.90
935;DHT22;454;53.254;10.400;2023-07-13T04:31:51;16.90;99.90
935;DHT22;454;53.254;10.400;2023-07-13T04:34:18;17.60;99.90
935;DHT22;454;53.254;10.400;2023-07-13T04:36:46;18.10;99.90
935;DHT22;454;53.254;10.400;2023-07-13T04:39:13;18.80;99.90
935;DHT22;454;53.254;10.400;2023-07-13T04:41:39;19.30;99.90
935;DHT22;454;53.254;10.400;2023-07-13T04:44:06;19.50;99.90
935;DHT22;454;53.254;10.400;2023-07-13T04:46:33;19.20;99.90
935;DHT22;454;53.254;10.400;2023-07-13T04:49:00;19.00;99.90
935;DHT22;454;53.254;10.400;2023-07-13T04:51:29;18.70;99.90
935;DHT22;454;53.254;10.400;2023-07-13T04:53:57;18.50;99.90
935;DHT22;454;53.254;10.400;2023-07-13T04:56:24;18.30;99.90
935;DHT22;454;53.254;10.400;2023-07-13T04:58:50;18.20;99.90
935;DHT22;454;53.254;10.400;2023-07-13T05:01:17;18.10;99.90
935;DHT22;454;53.254;10.400;2023-07-13T05:03:44;18.00;99.90
935;DHT22;454;53.254;10.400;2023-07-13T05:06:10;18.00;99.90
935;DHT22;454;53.254;10.400;2023-07-13T05:08:37;18.40;99.90
935;DHT22;454;53.254;10.400;2023-07-13T05:11:06;19.20;99.90
935;DHT22;454;53.254;10.400;2023-07-13T05:13:33;19.90;99.90
935;DHT22;454;53.254;10.400;2023-07-13T05:16:01;20.60;99.90
935;DHT22;454;53.254;10.400;2023-07-13T05:18:28;21.20;99.90
935;DHT22;454;53.254;10.400;2023-07-13T05:20:59;21.70;99.90
935;DHT22;454;53.254;10.400;2023-07-13T05:23:26;22.00;99.90
935;DHT22;454;53.254;10.400;2023-07-13T05:25:53;22.30;99.90
935;DHT22;454;53.254;10.400;2023-07-13T05:28:22;22.60;99.90
935;DHT22;454;53.254;10.400;2023-07-13T05:30:49;23.00;99.90
935;DHT22;454;53.254;10.400;2023-07-13T05:33:16;23.30;99.90
935;DHT22;454;53.254;10.400;2023-07-13T05:35:43;23.50;99.90
935;DHT22;454;53.254;10.400;2023-07-13T05:38:10;23.50;99.90
935;DHT22;454;53.254;10.400;2023-07-13T05:40:37;23.50;99.90
935;DHT22;454;53.254;10.400;2023-07-13T05:43:04;23.20;99.90
935;DHT22;454;53.254;10.400;2023-07-13T05:45:32;23.00;99.90
935;DHT22;454;53.254;10.400;2023-07-13T05:47:59;22.80;99.90
935;DHT22;454;53.254;10.400;2023-07-13T05:50:26;22.90;99.90
935;DHT22;454;53.254;10.400;2023-07-13T05:52:52;22.90;99.90
935;DHT22;454;53.254;10.400;2023-07-13T05:55:19;22.90;99.90
935;DHT22;454;53.254;10.400;2023-07-13T05:57:46;22.70;99.90
935;DHT22;454;53.254;10.400;2023-07-13T06:00:14;22.40;99.90
935;DHT22;454;53.254;10.400;2023-07-13T06:02:42;22.20;99.90
935;DHT22;454;53.254;10.400;2023-07-13T06:05:09;22.40;99.90
935;DHT22;454;53.254;10.400;2023-07-13T06:07:36;22.80;99.90
935;DHT22;454;53.254;10.400;2023-07-13T06:10:03;23.40;99.90
935;DHT22;454;53.254;10.400;2023-07-13T06:12:29;23.70;99.90
935;DHT22;454;53.254;10.400;2023-07-13T06:14:56;24.00;99.90
935;DHT22;454;53.254;10.400;2023-07-13T06:17:23;24.30;99.90
935;DHT22;454;53.254;10.400;2023-07-13T06:19:51;24.90;99.90
935;DHT22;454;53.254;10.400;2023-07-13T06:22:18;25.20;99.90
935;DHT22;454;53.254;10.400;2023-07-13T06:24:44;25.20;99.90
935;DHT22;454;53.254;10.400;2023-07-13T06:27:11;25.30;99.90
935;DHT22;454;53.254;10.400;2023-07-13T06:29:38;25.40;99.90
935;DHT22;454;53.254;10.400;2023-07-13T06:32:06;25.50;99.90
935;DHT22;454;53.254;10.400;2023-07-13T06:34:33;25.70;99.90
935;DHT22;454;53.254;10.400;2023-07-13T06:37:01;25.50;99.90
935;DHT22;454;53.254;10.400;2023-07-13T06:39:28;25.60;99.90
935;DHT22;454;53.254;10.400;2023-07-13T06:41:54;25.80;99.90
935;DHT22;454;53.254;10.400;2023-07-13T06:44:21;25.80;99.90
935;DHT22;454;53.254;10.400;2023-07-13T06:46:48;25.30;99.90
935;DHT22;454;53.254;10.400;2023-07-13T06:49:14;25.30;99.90
935;DHT22;454;53.254;10.400;2023-07-13T06:51:41;24.80;99.90
935;DHT22;454;53.254;10.400;2023-07-13T06:54:09;24.70;99.90
935;DHT22;454;53.254;10.400;2023-07-13T06:56:36;24.70;99.90
935;DHT22;454;53.254;10.400;2023-07-13T06:59:03;24.80;99.90
935;DHT22;454;53.254;10.400;2023-07-13T07:01:29;25.20;99.90
935;DHT22;454;53.254;10.400;2023-07-13T07:03:56;25.40;99.90
935;DHT22;454;53.254;10.400;2023-07-13T07:06:23;25.50;99.90
935;DHT22;454;53.254;10.400;2023-07-13T07:08:50;25.60;99.90
935;DHT22;454;53.254;10.400;2023-07-13T07:11:20;25.60;99.90
935;DHT22;454;53.254;10.400;2023-07-13T07:13:47;26.00;99.90
935;DHT22;454;53.254;10.400;2023-07-13T07:16:14;26.50;99.90
935;DHT22;454;53.254;10.400;2023-07-13T07:18:41;26.60;99.90
935;DHT22;454;53.254;10.400;2023-07-13T07:21:08;26.10;99.90
935;DHT22;454;53.254;10.400;2023-07-13T07:23:35;25.30;99.90
935;DHT22;454;53.254;10.400;2023-07-13T07:26:01;24.70;99.90
935;DHT22;454;53.254;10.400;2023-07-13T07:28:29;24.60;99.90
935;DHT22;454;53.254;10.400;2023-07-13T07:30:57;24.10;99.90
935;DHT22;454;53.254;10.400;2023-07-13T07:33:25;23.70;99.90
935;DHT22;454;53.254;10.400;2023-07-13T07:35:52;23.60;99.90
935;DHT22;454;53.254;10.400;2023-07-13T07:38:19;23.70;99.90
935;DHT22;454;53.254;10.400;2023-07-13T07:40:45;23.70;99.90
935;DHT22;454;53.254;10.400;2023-07-13T07:43:12;23.50;99.90
935;DHT22;454;53.254;10.400;2023-07-13T07:45:40;23.30;99.90
935;DHT22;454;53.254;10.400;2023-07-13T07:48:07;23.70;99.90
935;DHT22;454;53.254;10.400;2023-07-13T07:50:35;23.60;99.90
935;DHT22;454;53.254;10.400;2023-07-13T07:53:02;23.30;99.90
935;DHT22;454;53.254;10.400;2023-07-13T07:55:33;23.00;99.90
935;DHT22;454;53.254;10.400;2023-07-13T07:58:00;22.70;99.90
935;DHT22;454;53.254;10.400;2023-07-13T08:00:27;22.40;99.90
935;DHT22;454;53.254;10.400;2023-07-13T08:02:57;22.30;99.90
935;DHT22;454;53.254;10.400;2023-07-13T08:05:25;22.50;99.90
935;DHT22;454;53.254;10.400;2023-07-13T08:07:51;23.40;99.90
935;DHT22;454;53.254;10.400;2023-07-13T08:10:19;24.40;99.90
935;DHT22;454;53.254;10.400;2023-07-13T08:12:46;24.90;99.90
935;DHT22;454;53.254;10.400;2023-07-13T08:15:15;24.90;99.90
935;DHT22;454;53.254;10.400;2023-07-13T08:17:43;24.80;99.90
935;DHT22;454;53.254;10.400;2023-07-13T08:20:11;25.10;99.90
935;DHT22;454;53.254;10.400;2023-07-13T08:22:38;25.00;99.90
935;DHT22;454;53.254;10.400;2023-07-13T08:25:05;24.20;99.90
935;DHT22;454;53.254;10.400;2023-07-13T08:27:33;24.20;99.90
935;DHT22;454;53.254;10.400;2023-07-13T08:29:59;24.30;99.90
935;DHT22;454;53.254;10.400;2023-07-13T08:32:26;24.70;99.90
935;DHT22;454;53.254;10.400;2023-07-13T08:34:53;24.70;99.90
935;DHT22;454;53.254;10.400;2023-07-13T08:37:21;24.50;99.90
935;DHT22;454;53.254;10.400;2023-07-13T08:39:48;24.20;99.90
935;DHT22;454;53.254;10.400;2023-07-13T08:42:22;24.00;99.90
935;DHT22;454;53.254;10.400;2023-07-13T08:44:59;23.90;99.90
935;DHT22;454;53.254;10.400;2023-07-13T08:47:32;23.80;99.90
935;DHT22;454;53.254;10.400;2023-07-13T08:49:59;24.00;99.90
935;DHT22;454;53.254;10.400;2023-07-13T08:52:31;23.90;99.90
935;DHT22;454;53.254;10.400;2023-07-13T08:55:04;23.70;99.90
935;DHT22;454;53.254;10.400;2023-07-13T08:57:34;23.70;99.90
935;DHT22;454;53.254;10.400;2023-07-13T09:00:01;23.60;99.90
935;DHT22;454;53.254;10.400;2023-07-13T09:02:39;23.10;99.90
935;DHT22;454;53.254;10.400;2023-07-13T09:05:11;23.20;99.90
935;DHT22;454;53.254;10.400;2023-07-13T09:10:31;23.90;99.90
935;DHT22;454;53.254;10.400;2023-07-13T09:13:07;23.70;99.90
935;DHT22;454;53.254;10.400;2023-07-13T09:15:41;23.40;99.90
935;DHT22;454;53.254;10.400;2023-07-13T09:18:11;23.40;99.90
935;DHT22;454;53.254;10.400;2023-07-13T09:20:44;23.40;99.90
935;DHT22;454;53.254;10.400;2023-07-13T09:23:15;23.50;99.90
935;DHT22;454;53.254;10.400;2023-07-13T09:25:44;23.50;99.90
935;DHT22;454;53.254;10.400;2023-07-13T09:28:16;23.40;99.90
935;DHT22;454;53.254;10.400;2023-07-13T09:30:49;23.30;99.90
935;DHT22;454;53.254;10.400;2023-07-13T09:33:18;23.30;99.90
935;DHT22;454;53.254;10.400;2023-07-13T09:35:45;23.10;99.90
935;DHT22;454;53.254;10.400;2023-07-13T09:38:15;22.90;99.90
935;DHT22;454;53.254;10.400;2023-07-13T09:41:04;23.00;99.90
935;DHT22;454;53.254;10.400;2023-07-13T09:43:34;23.20;99.90
935;DHT22;454;53.254;10.400;2023-07-13T09:46:01;23.40;99.90
935;DHT22;454;53.254;10.400;2023-07-13T09:48:34;23.50;99.90
935;DHT22;454;53.254;10.400;2023-07-13T09:51:09;23.50;99.90
935;DHT22;454;53.254;10.400;2023-07-13T09:53:41;23.30;99.90
935;DHT22;454;53.254;10.400;2023-07-13T09:56:19;23.10;99.90
935;DHT22;454;53.254;10.400;2023-07-13T09:58:46;22.50;99.90
935;DHT22;454;53.254;10.400;2023-07-13T10:01:12;22.20;99.90
935;DHT22;454;53.254;10.400;2023-07-13T10:03:40;21.90;99.90
935;DHT22;454;53.254;10.400;2023-07-13T10:06:20;21.80;99.90
935;DHT22;454;53.254;10.400;2023-07-13T10:08:49;21.70;99.90
935;DHT22;454;53.254;10.400;2023-07-13T10:11:19;21.80;99.90
935;DHT22;454;53.254;10.400;2023-07-13T10:13:51;21.90;99.90
935;DHT22;454;53.254;10.400;2023-07-13T10:16:19;22.00;99.90
935;DHT22;454;53.254;10.400;2023-07-13T10:18:48;22.20;99.90
935;DHT22;454;53.254;10.400;2023-07-13T10:21:18;22.30;99.90
935;DHT22;454;53.254;10.400;2023-07-13T10:23:51;22.20;99.90
935;DHT22;454;53.254;10.400;2023-07-13T10:26:21;22.40;99.90
935;DHT22;454;53.254;10.400;2023-07-13T10:28:53;22.60;99.90
935;DHT22;454;53.254;10.400;2023-07-13T10:31:22;22.80;99.90
935;DHT22;454;53.254;10.400;2023-07-13T10:33:49;22.80;99.90
935;DHT22;454;53.254;10.400;2023-07-13T10:36:23;22.90;99.90
935;DHT22;454;53.254;10.400;2023-07-13T10:38:57;23.10;99.90
935;DHT22;454;53.254;10.400;2023-07-13T10:41:27;23.40;99.90
935;DHT22;454;53.254;10.400;2023-07-13T10:43:57;23.70;99.90
935;DHT22;454;53.254;10.400;2023-07-13T10:46:27;23.90;99.90
935;DHT22;454;53.254;10.400;2023-07-13T10:48:58;24.10;99.90
935;DHT22;454;53.254;10.400;2023-07-13T10:51:25;24.40;99.90
935;DHT22;454;53.254;10.400;2023-07-13T10:54:14;24.40;99.90
935;DHT22;454;53.254;10.400;2023-07-13T10:56:42;24.50;99.90
935;DHT22;454;53.254;10.400;2023-07-13T10:59:15;24.60;99.90
935;DHT22;454;53.254;10.400;2023-07-13T11:01:50;24.50;99.90
935;DHT22;454;53.254;10.400;2023-07-13T11:04:18;24.40;99.90
935;DHT22;454;53.254;10.400;2023-07-13T11:06:48;24.40;99.90
935;DHT22;454;53.254;10.400;2023-07-13T11:09:36;24.30;99.90
935;DHT22;454;53.254;10.400;2023-07-13T11:12:09;24.30;99.90
935;DHT22;454;53.254;10.400;2023-07-13T11:14:43;24.30;99.90
935;DHT22;454;53.254;10.400;2023-07-13T11:17:34;24.40;99.90
935;DHT22;454;53.254;10.400;2023-07-13T11:20:19;24.30;99.90
935;DHT22;454;53.254;10.400;2023-07-13T11:22:48;24.00;99.90
935;DHT22;454;53.254;10.400;2023-07-13T11:25:29;23.90;99.90
935;DHT22;454;53.254;10.400;2023-07-13T11:28:17;24.00;99.90
935;DHT22;454;53.254;10.400;2023-07-13T11:30:49;24.20;99.90
935;DHT22;454;53.254;10.400;2023-07-13T11:33:19;24.30;99.90
935;DHT22;454;53.254;10.400;2023-07-13T11:35:59;24.40;99.90
935;DHT22;454;53.254;10.400;2023-07-13T11:38:32;24.50;99.90
935;DHT22;454;53.254;10.400;2023-07-13T11:41:04;24.60;99.90
935;DHT22;454;53.254;10.400;2023-07-13T11:43:31;24.70;99.90
935;DHT22;454;53.254;10.400;2023-07-13T11:46:13;24.80;99.90
935;DHT22;454;53.254;10.400;2023-07-13T11:48:47;24.90;99.90
935;DHT22;454;53.254;10.400;2023-07-13T11:51:19;25.00;99.90
935;DHT22;454;53.254;10.400;2023-07-13T11:53:49;25.00;99.90
935;DHT22;454;53.254;10.400;2023-07-13T11:56:18;25.00;99.90
935;DHT22;454;53.254;10.400;2023-07-13T11:58:48;24.90;99.90
935;DHT22;454;53.254;10.400;2023-07-13T12:01:21;25.00;99.90
935;DHT22;454;53.254;10.400;2023-07-13T12:03:49;25.10;99.90
935;DHT22;454;53.254;10.400;2023-07-13T12:06:27;25.00;99.90
935;DHT22;454;53.254;10.400;2023-07-13T12:08:58;25.10;99.90
935;DHT22;454;53.254;10.400;2023-07-13T12:11:27;25.10;99.90
935;DHT22;454;53.254;10.400;2023-07-13T12:13:54;25.20;99.90
935;DHT22;454;53.254;10.400;2023-07-13T12:16:26;25.10;99.90
935;DHT22;454;53.254;10.400;2023-07-13T12:18:54;25.20;99.90
935;DHT22;454;53.254;10.400;2023-07-13T12:21:26;25.30;99.90
935;DHT22;454;53.254;10.400;2023-07-13T12:23:54;25.30;99.90
935;DHT22;454;53.254;10.400;2023-07-13T12:26:21;25.50;99.90
935;DHT22;454;53.254;10.400;2023-07-13T12:28:51;25.20;99.90
935;DHT22;454;53.254;10.400;2023-07-13T12:31:30;24.90;99.90
935;DHT22;454;53.254;10.400;2023-07-13T12:33:59;24.50;99.90
935;DHT22;454;53.254;10.400;2023-07-13T12:36:26;24.30;99.90
935;DHT22;454;53.254;10.400;2023-07-13T12:38:58;24.20;99.90
935;DHT22;454;53.254;10.400;2023-07-13T12:41:29;24.10;99.90
935;DHT22;454;53.254;10.400;2023-07-13T12:43:59;24.00;99.90
935;DHT22;454;53.254;10.400;2023-07-13T12:46:26;24.20;99.90
935;DHT22;454;53.254;10.400;2023-07-13T12:48:57;24.20;99.90
935;DHT22;454;53.254;10.400;2023-07-13T12:51:25;24.20;99.90
935;DHT22;454;53.254;10.400;2023-07-13T12:53:58;23.90;99.90
935;DHT22;454;53.254;10.400;2023-07-13T12:56:32;23.60;99.90
935;DHT22;454;53.254;10.400;2023-07-13T12:59:03;23.50;99.90
935;DHT22;454;53.254;10.400;2023-07-13T13:01:33;23.30;99.90
935;DHT22;454;53.254;10.400;2023-07-13T13:04:03;22.70;99.90
935;DHT22;454;53.254;10.400;2023-07-13T13:06:33;21.40;99.90
935;DHT22;454;53.254;10.400;2023-07-13T13:09:02;20.40;99.90
935;DHT22;454;53.254;10.400;2023-07-13T13:11:31;19.90;99.90
935;DHT22;454;53.254;10.400;2023-07-13T13:13:58;19.20;99.90
935;DHT22;454;53.254;10.400;2023-07-13T13:16:30;18.60;99.90
935;DHT22;454;53.254;10.400;2023-07-13T13:19:01;18.20;99.90
935;DHT22;454;53.254;10.400;2023-07-13T13:21:30;18.10;99.90
935;DHT22;454;53.254;10.400;2023-07-13T13:23:58;18.10;99.90
935;DHT22;454;53.254;10.400;2023-07-13T13:26:24;17.90;99.90
935;DHT22;454;53.254;10.400;2023-07-13T13:28:51;17.80;99.90
935;DHT22;454;53.254;10.400;2023-07-13T13:31:18;18.00;99.90
935;DHT22;454;53.254;10.400;2023-07-13T13:33:46;18.20;99.90
935;DHT22;454;53.254;10.400;2023-07-13T13:36:15;18.40;99.90
935;DHT22;454;53.254;10.400;2023-07-13T13:38:42;18.60;99.90
935;DHT22;454;53.254;10.400;2023-07-13T13:41:10;18.70;99.90
935;DHT22;454;53.254;10.400;2023-07-13T13:43:39;18.80;99.90
935;DHT22;454;53.254;10.400;2023-07-13T13:46:19;18.90;99.90
935;DHT22;454;53.254;10.400;2023-07-13T13:48:49;19.00;99.90
935;DHT22;454;53.254;10.400;2023-07-13T13:51:17;19.30;99.90
935;DHT22;454;53.254;10.400;2023-07-13T13:53:45;19.40;99.90
935;DHT22;454;53.254;10.400;2023-07-13T13:56:12;19.40;99.90
935;DHT22;454;53.254;10.400;2023-07-13T13:58:39;19.30;99.90
935;DHT22;454;53.254;10.400;2023-07-13T14:01:12;19.20;99.90
935;DHT22;454;53.254;10.400;2023-07-13T14:03:40;19.30;99.90
935;DHT22;454;53.254;10.400;2023-07-13T14:06:11;19.30;99.90
935;DHT22;454;53.254;10.400;2023-07-13T14:08:39;19.40;99.90
935;DHT22;454;53.254;10.400;2023-07-13T14:11:07;19.50;99.90
935;DHT22;454;53.254;10.400;2023-07-13T14:13:40;19.50;99.90
935;DHT22;454;53.254;10.400;2023-07-13T14:16:11;19.60;99.90
935;DHT22;454;53.254;10.400;2023-07-13T14:18:38;19.60;99.90
935;DHT22;454;53.254;10.400;2023-07-13T14:21:12;19.60;99.90
935;DHT22;454;53.254;10.400;2023-07-13T14:23:39;19.70;99.90
935;DHT22;454;53.254;10.400;2023-07-13T14:26:10;19.70;99.90
935;DHT22;454;53.254;10.400;2023-07-13T14:28:38;19.70;99.90
935;DHT22;454;53.254;10.400;2023-07-13T14:31:07;19.60;99.90
935;DHT22;454;53.254;10.400;2023-07-13T14:33:35;19.60;99.90
935;DHT22;454;53.254;10.400;2023-07-13T14:36:02;19.60;99.90
935;DHT22;454;53.254;10.400;2023-07-13T14:38:31;19.60;99.90
935;DHT22;454;53.254;10.400;2023-07-13T14:40:57;19.60;99.90
935;DHT22;454;53.254;10.400;2023-07-13T14:43:24;19.70;99.90
935;DHT22;454;53.254;10.400;2023-07-13T14:45:53;19.70;99.90
935;DHT22;454;53.254;10.400;2023-07-13T14:48:23;19.70;99.90
935;DHT22;454;53.254;10.400;2023-07-13T14:50:55;19.70;99.90
935;DHT22;454;53.254;10.400;2023-07-13T14:53:24;19.80;99.90
935;DHT22;454;53.254;10.400;2023-07-13T14:55:52;19.80;99.90
935;DHT22;454;53.254;10.400;2023-07-13T14:58:19;19.80;99.90
935;DHT22;454;53.254;10.400;2023-07-13T15:00:46;19.90;99.90
935;DHT22;454;53.254;10.400;2023-07-13T15:03:17;20.00;99.90
935;DHT22;454;53.254;10.400;2023-07-13T15:05:47;20.00;99.90
935;DHT22;454;53.254;10.400;2023-07-13T15:08:15;20.00;99.90
935;DHT22;454;53.254;10.400;2023-07-13T15:10:42;20.00;99.90
935;DHT22;454;53.254;10.400;2023-07-13T15:13:18;20.00;99.90
935;DHT22;454;53.254;10.400;2023-07-13T15:15:47;20.10;99.90
935;DHT22;454;53.254;10.400;2023-07-13T15:18:15;20.10;99.90
935;DHT22;454;53.254;10.400;2023-07-13T15:20:44;20.20;99.90
935;DHT22;454;53.254;10.400;2023-07-13T15:23:12;20.30;99.90
935;DHT22;454;53.254;10.400;2023-07-13T15:25:39;20.30;99.90
935;DHT22;454;53.254;10.400;2023-07-13T15:28:06;20.30;99.90
935;DHT22;454;53.254;10.400;2023-07-13T15:30:39;20.30;99.90
935;DHT22;454;53.254;10.400;2023-07-13T15:33:12;20.40;99.90
935;DHT22;454;53.254;10.400;2023-07-13T15:35:40;20.30;99.90
935;DHT22;454;53.254;10.400;2023-07-13T15:38:19;20.30;99.90
935;DHT22;454;53.254;10.400;2023-07-13T15:40:46;20.40;99.90
935;DHT22;454;53.254;10.400;2023-07-13T15:43:15;20.40;99.90
935;DHT22;454;53.254;10.400;2023-07-13T15:45:44;20.50;99.90
935;DHT22;454;53.254;10.400;2023-07-13T15:48:15;20.70;99.90
935;DHT22;454;53.254;10.400;2023-07-13T15:50:44;20.80;99.90
935;DHT22;454;53.254;10.400;2023-07-13T15:53:13;20.80;99.90
935;DHT22;454;53.254;10.400;2023-07-13T15:55:41;21.10;99.90
935;DHT22;454;53.254;10.400;2023-07-13T15:58:11;21.30;99.90
935;DHT22;454;53.254;10.400;2023-07-13T16:00:40;21.10;99.90
935;DHT22;454;53.254;10.400;2023-07-13T16:03:08;21.10;99.90
935;DHT22;454;53.254;10.400;2023-07-13T16:05:36;21.10;99.90
935;DHT22;454;53.254;10.400;2023-07-13T16:08:04;21.20;99.90
935;DHT22;454;53.254;10.400;2023-07-13T16:10:33;21.20;99.90
935;DHT22;454;53.254;10.400;2023-07-13T16:13:01;21.30;99.90
935;DHT22;454;53.254;10.400;2023-07-13T16:15:27;21.30;99.90
935;DHT22;454;53.254;10.400;2023-07-13T16:17:54;21.30;99.90
935;DHT22;454;53.254;10.400;2023-07-13T16:20:22;21.30;99.90
935;DHT22;454;53.254;10.400;2023-07-13T16:22:52;21.30;99.90
935;DHT22;454;53.254;10.400;2023-07-13T16:25:22;21.40;99.90
935;DHT22;454;53.254;10.400;2023-07-13T16:27:51;21.40;99.90
935;DHT22;454;53.254;10.400;2023-07-13T16:30:21;21.50;99.90
935;DHT22;454;53.254;10.400;2023-07-13T16:32:48;21.50;99.90
935;DHT22;454;53.254;10.400;2023-07-13T16:35:17;21.60;99.90
935;DHT22;454;53.254;10.400;2023-07-13T16:37:45;21.60;99.90
935;DHT22;454;53.254;10.400;2023-07-13T16:40:23;21.60;99.90
935;DHT22;454;53.254;10.400;2023-07-13T16:42:51;21.60;99.90
935;DHT22;454;53.254;10.400;2023-07-13T16:45:19;21.70;99.90
935;DHT22;454;53.254;10.400;2023-07-13T16:47:50;21.70;99.90
935;DHT22;454;53.254;10.400;2023-07-13T16:50:19;21.60;99.90
935;DHT22;454;53.254;10.400;2023-07-13T16:52:47;21.60;99.90
935;DHT22;454;53.254;10.400;2023-07-13T16:55:16;21.60;99.90
935;DHT22;454;53.254;10.400;2023-07-13T16:57:45;21.60;99.90
935;DHT22;454;53.254;10.400;2023-07-13T17:00:20;21.50;99.90
935;DHT22;454;53.254;10.400;2023-07-13T17:02:49;21.50;99.90
935;DHT22;454;53.254;10.400;2023-07-13T17:05:18;21.30;99.90
935;DHT22;454;53.254;10.400;2023-07-13T17:07:46;21.00;99.90
935;DHT22;454;53.254;10.400;2023-07-13T17:10:20;20.90;99.90
935;DHT22;454;53.254;10.400;2023-07-13T17:12:48;20.90;99.90
935;DHT22;454;53.254;10.400;2023-07-13T17:15:15;20.90;99.90
935;DHT22;454;53.254;10.400;2023-07-13T17:17:44;20.90;99.90
935;DHT22;454;53.254;10.400;2023-07-13T17:20:16;20.90;99.90
935;DHT22;454;53.254;10.400;2023-07-13T17:22:43;20.90;99.90
935;DHT22;454;53.254;10.400;2023-07-13T17:25:13;20.90;99.90
935;DHT22;454;53.254;10.400;2023-07-13T17:27:40;20.80;99.90
935;DHT22;454;53.254;10.400;2023-07-13T17:30:13;20.70;99.90
935;DHT22;454;53.254;10.400;2023-07-13T17:32:40;20.70;99.90
935;DHT22;454;53.254;10.400;2023-07-13T17:35:25;20.60;99.90
935;DHT22;454;53.254;10.400;2023-07-13T17:37:53;20.40;99.90
935;DHT22;454;53.254;10.400;2023-07-13T17:40:22;20.40;99.90
935;DHT22;454;53.254;10.400;2023-07-13T17:42:49;20.20;99.90
935;DHT22;454;53.254;10.400;2023-07-13T17:45:20;20.20;99.90
935;DHT22;454;53.254;10.400;2023-07-13T17:47:47;20.10;99.90
935;DHT22;454;53.254;10.400;2023-07-13T17:50:23;20.10;99.90
935;DHT22;454;53.254;10.400;2023-07-13T17:52:53;20.00;99.90
935;DHT22;454;53.254;10.400;2023-07-13T17:55:22;20.00;99.90
935;DHT22;454;53.254;10.400;2023-07-13T17:57:49;20.00;99.90
935;DHT22;454;53.254;10.400;2023-07-13T18:00:18;20.00;99.90
935;DHT22;454;53.254;10.400;2023-07-13T18:02:59;20.00;99.90
935;DHT22;454;53.254;10.400;2023-07-13T18:05:28;19.90;99.90
935;DHT22;454;53.254;10.400;2023-07-13T18:07:56;19.90;99.90
935;DHT22;454;53.254;10.400;2023-07-13T18:10:24;19.90;99.90
935;DHT22;454;53.254;10.400;2023-07-13T18:12:51;19.90;99.90
935;DHT22;454;53.254;10.400;2023-07-13T18:15:20;19.90;99.90
935;DHT22;454;53.254;10.400;2023-07-13T18:17:48;20.00;99.90
935;DHT22;454;53.254;10.400;2023-07-13T18:20:16;20.00;99.90
935;DHT22;454;53.254;10.400;2023-07-13T18:22:43;19.90;99.90
935;DHT22;454;53.254;10.400;2023-07-13T18:25:13;19.90;99.90
935;DHT22;454;53.254;10.400;2023-07-13T18:27:42;19.90;99.90
935;DHT22;454;53.254;10.400;2023-07-13T18:30:10;19.80;99.90
935;DHT22;454;53.254;10.400;2023-07-13T18:32:39;19.80;99.90
935;DHT22;454;53.254;10.400;2023-07-13T18:35:12;19.70;99.90
935;DHT22;454;53.254;10.400;2023-07-13T18:37:40;19.70;99.90
935;DHT22;454;53.254;10.400;2023-07-13T18:40:13;19.70;99.90
935;DHT22;454;53.254;10.400;2023-07-13T18:42:43;19.70;99.90
935;DHT22;454;53.254;10.400;2023-07-13T18:45:11;19.70;99.90
935;DHT22;454;53.254;10.400;2023-07-13T18:47:40;19.70;99.90
935;DHT22;454;53.254;10.400;2023-07-13T18:50:15;19.70;99.90
935;DHT22;454;53.254;10.400;2023-07-13T18:52:44;19.60;99.90
935;DHT22;454;53.254;10.400;2023-07-13T18:55:15;19.60;99.90
935;DHT22;454;53.254;10.400;2023-07-13T18:57:44;19.60;99.90
935;DHT22;454;53.254;10.400;2023-07-13T19:00:12;19.50;99.90
935;DHT22;454;53.254;10.400;2023-07-13T19:02:39;19.40;99.90
935;DHT22;454;53.254;10.400;2023-07-13T19:05:14;19.40;99.90
935;DHT22;454;53.254;10.400;2023-07-13T19:07:41;19.20;99.90
935;DHT22;454;53.254;10.400;2023-07-13T19:10:13;19.20;99.90
935;DHT22;454;53.254;10.400;2023-07-13T19:12:46;19.20;99.90
935;DHT22;454;53.254;10.400;2023-07-13T19:15:19;19.10;99.90
935;DHT22;454;53.254;10.400;2023-07-13T19:17:48;18.90;99.90
935;DHT22;454;53.254;10.400;2023-07-13T19:20:15;18.90;99.90
935;DHT22;454;53.254;10.400;2023-07-13T19:22:49;18.80;99.90
935;DHT22;454;53.254;10.400;2023-07-13T19:25:18;18.70;99.90
935;DHT22;454;53.254;10.400;2023-07-13T19:27:48;18.60;99.90
935;DHT22;454;53.254;10.400;2023-07-13T19:30:15;18.60;99.90
935;DHT22;454;53.254;10.400;2023-07-13T19:32:44;18.50;99.90
935;DHT22;454;53.254;10.400;2023-07-13T19:35:12;18.40;99.90
935;DHT22;454;53.254;10.400;2023-07-13T19:37:39;18.30;99.90
935;DHT22;454;53.254;10.400;2023-07-13T19:40:16;18.20;99.90
935;DHT22;454;53.254;10.400;2023-07-13T19:42:43;18.20;99.90
935;DHT22;454;53.254;10.400;2023-07-13T19:45:17;18.10;99.90
935;DHT22;454;53.254;10.400;2023-07-13T19:47:44;18.00;99.90
935;DHT22;454;53.254;10.400;2023-07-13T19:50:12;17.90;99.90
935;DHT22;454;53.254;10.400;2023-07-13T19:52:43;17.90;99.90
935;DHT22;454;53.254;10.400;2023-07-13T19:55:12;17.80;99.90
935;DHT22;454;53.254;10.400;2023-07-13T19:57:40;17.70;99.90
935;DHT22;454;53.254;10.400;2023-07-13T20:00:15;17.70;99.90
935;DHT22;454;53.254;10.400;2023-07-13T20:02:43;17.60;99.90
935;DHT22;454;53.254;10.400;2023-07-13T20:05:10;17.60;99.90
935;DHT22;454;53.254;10.400;2023-07-13T20:07:36;17.50;99.90
935;DHT22;454;53.254;10.400;2023-07-13T20:10:22;17.50;99.90
935;DHT22;454;53.254;10.400;2023-07-13T20:12:51;17.40;99.90
935;DHT22;454;53.254;10.400;2023-07-13T20:15:21;17.40;99.90
935;DHT22;454;53.254;10.400;2023-07-13T20:17:51;17.30;99.90
935;DHT22;454;53.254;10.400;2023-07-13T20:20:21;17.30;99.90
935;DHT22;454;53.254;10.400;2023-07-13T20:22:49;17.30;99.90
935;DHT22;454;53.254;10.400;2023-07-13T20:25:18;17.30;99.90
935;DHT22;454;53.254;10.400;2023-07-13T20:27:46;17.20;99.90
935;DHT22;454;53.254;10.400;2023-07-13T20:30:12;17.20;99.90
935;DHT22;454;53.254;10.400;2023-07-13T20:32:41;17.10;99.90
935;DHT22;454;53.254;10.400;2023-07-13T20:35:25;17.10;99.90